Time;durP1;ratioP1;P1;durP2;ratioP2;P2;SDS_P1;SDS_P2;PMS_P1;PMS_P2;Temp;Humidity;BMP_temperature;BMP_pressure;BME280_temperature;BME280_humidity;BME280_pressure;Samples;Min_cycle;Max_cycle;Signal;HPM_P1;HPM_P2
2022/08/28 00:01:14;;;;;;;13.23;11.20;;;19.00;1.00;;;;;;6279402;28;20237;-55
2022/08/28 00:04:17;;;;;;;11.93;10.80;;;19.00;1.00;;;;;;6280014;28;20771;-55
2022/08/28 00:07:33;;;;;;;13.40;10.97;;;18.90;1.00;;;;;;6283726;28;20498;-55
2022/08/28 00:10:38;;;;;;;17.67;10.90;;;18.90;1.00;;;;;;6284425;28;20749;-56
2022/08/28 00:13:43;;;;;;;11.33;10.17;;;18.90;1.00;;;;;;6260492;28;20245;-56
2022/08/28 00:16:46;;;;;;;14.17;9.80;;;18.80;1.00;;;;;;6259635;28;20606;-56
2022/08/28 00:19:49;;;;;;;12.07;10.83;;;18.80;1.00;;;;;;6269786;28;20306;-55
2022/08/28 00:22:54;;;;;;;12.70;11.37;;;18.80;1.00;;;;;;6283643;28;20237;-55
2022/08/28 00:25:57;;;;;;;11.53;10.43;;;18.70;1.00;;;;;;6284581;28;20383;-56
2022/08/28 00:29:00;;;;;;;13.97;10.73;;;18.80;1.00;;;;;;6273041;28;20264;-56
2022/08/28 00:32:04;;;;;;;14.73;10.67;;;18.80;1.00;;;;;;6274835;28;20318;-55
2022/08/28 00:35:07;;;;;;;17.20;11.10;;;18.70;1.00;;;;;;6283821;28;20313;-55
2022/08/28 00:38:12;;;;;;;15.63;11.87;;;18.70;1.00;;;;;;6277253;28;20400;-55
2022/08/28 00:41:16;;;;;;;12.60;11.30;;;18.70;1.00;;;;;;6259911;28;20390;-55
2022/08/28 00:44:28;;;;;;;16.03;10.47;;;18.80;1.00;;;;;;6259014;28;20373;-56
2022/08/28 00:47:31;;;;;;;13.60;10.07;;;18.80;1.00;;;;;;6258404;28;20309;-55
2022/08/28 00:53:55;;;;;;;11.87;9.87;;;18.80;1.00;;;;;;6257764;28;20634;-56
2022/08/28 00:57:03;;;;;;;10.70;9.50;;;18.70;1.00;;;;;;6259956;28;20611;-55
2022/08/28 01:00:12;;;;;;;12.87;9.83;;;18.70;1.00;;;;;;6258807;28;20477;-56
2022/08/28 01:03:15;;;;;;;12.97;9.20;;;18.70;1.00;;;;;;6275371;28;20282;-56
2022/08/28 01:06:19;;;;;;;11.87;8.40;;;18.70;1.00;;;;;;6272919;28;20244;-55
2022/08/28 01:09:26;;;;;;;13.07;9.53;;;18.70;1.00;;;;;;6267291;28;20313;-55
2022/08/28 01:12:32;;;;;;;10.93;7.30;;;18.60;1.00;;;;;;6259811;28;20238;-55
2022/08/28 01:15:38;;;;;;;10.17;7.83;;;18.60;1.00;;;;;;6251171;28;20376;-54
2022/08/28 01:18:41;;;;;;;9.37;7.83;;;18.60;1.00;;;;;;6258619;28;20316;-55
2022/08/28 01:21:50;;;;;;;8.57;7.80;;;18.50;1.00;;;;;;6258328;28;20300;-56
2022/08/28 01:24:57;;;;;;;7.90;7.20;;;18.50;1.00;;;;;;6259634;28;20236;-54
2022/08/28 01:28:02;;;;;;;13.00;7.73;;;18.50;1.00;;;;;;6258080;28;20853;-56
2022/08/28 01:31:08;;;;;;;16.70;7.00;;;18.50;1.00;;;;;;6256889;28;20753;-56
2022/08/28 01:34:12;;;;;;;13.10;7.83;;;18.50;1.00;;;;;;6275900;28;20230;-54
2022/08/28 01:37:15;;;;;;;11.53;8.13;;;18.50;1.00;;;;;;6282046;28;20703;-55
2022/08/28 01:40:23;;;;;;;12.57;8.20;;;18.50;1.00;;;;;;6283587;28;20328;-56
2022/08/28 01:43:27;;;;;;;15.67;8.87;;;18.50;1.00;;;;;;6275695;28;20768;-55
2022/08/28 01:46:34;;;;;;;12.07;8.20;;;18.40;1.00;;;;;;6257280;28;20304;-55
2022/08/28 01:49:37;;;;;;;14.57;9.60;;;18.50;1.00;;;;;;6258575;28;20246;-54
2022/08/28 01:52:41;;;;;;;10.27;9.20;;;18.50;1.00;;;;;;6257672;28;20605;-56
2022/08/28 01:55:46;;;;;;;15.67;10.70;;;18.50;1.00;;;;;;6272966;28;20324;-55
2022/08/28 01:58:49;;;;;;;15.27;10.63;;;18.40;1.00;;;;;;6282467;28;20778;-54
2022/08/28 02:01:53;;;;;;;16.77;11.07;;;18.50;1.00;;;;;;6269943;28;20794;-54
2022/08/28 02:04:57;;;;;;;14.73;11.77;;;18.60;1.00;;;;;;6283216;28;20236;-54
2022/08/28 02:08:01;;;;;;;15.27;10.47;;;18.40;1.00;;;;;;6268751;28;20229;-55
2022/08/28 02:11:07;;;;;;;14.87;12.63;;;18.50;1.00;;;;;;6279143;28;20244;-54
2022/08/28 02:14:10;;;;;;;12.10;10.90;;;18.40;1.00;;;;;;6281756;28;20241;-54
2022/08/28 02:17:13;;;;;;;20.20;13.07;;;18.40;1.00;;;;;;6256982;28;20383;-54
2022/08/28 02:20:19;;;;;;;18.37;13.93;;;18.40;1.00;;;;;;6257089;28;20238;-53
2022/08/28 02:23:22;;;;;;;16.10;13.63;;;18.40;1.00;;;;;;6258122;28;20472;-56
2022/08/28 02:26:27;;;;;;;14.60;13.10;;;18.40;1.00;;;;;;6257736;28;20273;-55
2022/08/28 02:29:30;;;;;;;22.07;14.37;;;18.40;1.00;;;;;;6258065;28;20237;-56
2022/08/28 02:32:33;;;;;;;15.63;13.93;;;18.40;1.00;;;;;;6267566;28;20312;-54
2022/08/28 02:35:36;;;;;;;15.87;14.43;;;18.40;1.00;;;;;;6273274;28;20237;-55
2022/08/28 02:38:38;;;;;;;15.93;14.30;;;18.40;1.00;;;;;;6282386;28;20327;-55
2022/08/28 02:41:44;;;;;;;15.43;13.90;;;18.40;1.00;;;;;;6281802;28;20446;-54
2022/08/28 02:44:48;;;;;;;17.40;14.60;;;18.40;1.00;;;;;;6258042;28;20867;-54
2022/08/28 02:47:52;;;;;;;15.77;13.23;;;18.40;1.00;;;;;;6256917;28;20369;-55
2022/08/28 02:50:58;;;;;;;15.77;14.00;;;18.40;1.00;;;;;;6256829;28;20341;-55
2022/08/28 02:54:01;;;;;;;16.63;14.93;;;18.40;1.00;;;;;;6278044;28;20229;-54
2022/08/28 02:57:07;;;;;;;17.20;14.37;;;18.40;1.00;;;;;;6281479;28;20240;-55
2022/08/28 03:00:13;;;;;;;24.77;14.27;;;18.30;1.00;;;;;;6280355;28;20351;-55
2022/08/28 03:03:16;;;;;;;14.47;12.07;;;18.30;1.00;;;;;;6273074;28;20229;-55
2022/08/28 03:06:19;;;;;;;16.93;12.80;;;18.30;1.00;;;;;;6275601;28;20709;-55
2022/08/28 03:09:22;;;;;;;13.10;11.77;;;18.30;1.00;;;;;;6238828;28;20233;-55
2022/08/28 03:12:26;;;;;;;11.93;10.97;;;18.30;1.00;;;;;;6229341;28;20230;-54
2022/08/28 03:15:29;;;;;;;15.10;10.97;;;18.30;1.00;;;;;;6257389;28;20272;-54
2022/08/28 03:18:33;;;;;;;13.07;11.73;;;18.20;1.00;;;;;;6257470;28;20614;-55
2022/08/28 03:21:35;;;;;;;15.67;11.17;;;18.20;1.00;;;;;;6257688;28;20285;-55
2022/08/28 03:24:38;;;;;;;12.13;10.90;;;18.20;1.00;;;;;;6257144;28;20783;-54
2022/08/28 03:27:43;;;;;;;12.40;10.87;;;18.20;1.00;;;;;;6266982;28;20763;-55
2022/08/28 03:30:49;;;;;;;11.97;10.27;;;18.20;1.00;;;;;;6280970;28;20324;-55
2022/08/28 03:34:16;;;;;;;13.43;10.57;;;18.20;1.00;;;;;;6269666;28;20233;-55
2022/08/28 03:37:20;;;;;;;12.97;9.77;;;18.10;1.00;;;;;;6277309;28;20237;-54
2022/08/28 03:40:23;;;;;;;14.00;9.90;;;18.10;1.00;;;;;;6271821;28;20611;-54
2022/08/28 03:43:27;;;;;;;14.50;10.00;;;18.10;1.00;;;;;;6281288;28;20828;-54
2022/08/28 03:46:36;;;;;;;14.40;8.73;;;18.00;1.00;;;;;;6280429;28;20242;-55
2022/08/28 03:49:39;;;;;;;8.13;7.50;;;18.10;1.00;;;;;;6270745;28;20318;-55
2022/08/28 03:52:42;;;;;;;12.40;8.67;;;18.00;1.00;;;;;;6277937;28;20583;-55
2022/08/28 03:55:45;;;;;;;10.00;9.00;;;18.00;1.00;;;;;;6281246;28;20256;-55
2022/08/28 03:58:51;;;;;;;16.57;8.93;;;18.00;1.00;;;;;;6282491;28;20403;-55
2022/08/28 04:01:54;;;;;;;13.63;8.33;;;18.00;1.00;;;;;;6280588;28;20241;-56
2022/08/28 04:04:58;;;;;;;9.53;8.17;;;17.90;1.00;;;;;;6284886;28;20233;-55
2022/08/28 04:08:01;;;;;;;12.70;8.57;;;17.90;1.00;;;;;;6275651;28;20606;-56
2022/08/28 04:11:05;;;;;;;7.67;7.03;;;17.80;1.00;;;;;;6273451;28;20236;-55
2022/08/28 04:14:09;;;;;;;9.63;8.00;;;17.80;1.00;;;;;;6280996;28;20318;-55
2022/08/28 04:17:12;;;;;;;11.67;7.57;;;17.80;1.00;;;;;;6284835;28;20229;-55
2022/08/28 04:20:15;;;;;;;10.00;7.80;;;17.80;1.00;;;;;;6283397;28;20297;-55
2022/08/28 04:23:18;;;;;;;12.70;7.80;;;17.80;1.00;;;;;;6281092;28;20702;-56
2022/08/28 04:26:23;;;;;;;10.37;7.30;;;17.70;1.00;;;;;;6284347;28;20233;-55
2022/08/28 04:29:28;;;;;;;12.87;8.00;;;17.70;1.00;;;;;;6281513;28;20370;-55
2022/08/28 04:32:33;;;;;;;9.97;6.90;;;17.70;1.00;;;;;;6278350;28;20234;-55
2022/08/28 04:35:36;;;;;;;10.83;6.97;;;17.60;1.00;;;;;;6283965;28;20237;-56
2022/08/28 04:38:39;;;;;;;11.70;7.10;;;17.60;1.00;;;;;;6282359;28;20375;-55
2022/08/28 04:41:46;;;;;;;14.63;7.00;;;17.60;1.00;;;;;;6280865;28;20281;-56
2022/08/28 04:44:50;;;;;;;6.77;6.20;;;17.60;1.00;;;;;;6280166;28;20241;-55
2022/08/28 04:47:53;;;;;;;11.67;6.70;;;17.60;1.00;;;;;;6276590;28;20238;-55
2022/08/28 04:50:56;;;;;;;11.30;7.17;;;17.60;1.00;;;;;;6280127;28;20456;-55
2022/08/28 04:54:02;;;;;;;12.60;7.30;;;17.50;1.00;;;;;;6283524;28;20237;-55
2022/08/28 04:57:05;;;;;;;20.53;6.97;;;17.50;1.00;;;;;;6282697;28;20264;-56
2022/08/28 05:00:11;;;;;;;8.67;6.03;;;17.60;1.00;;;;;;6264886;28;20325;-55
2022/08/28 05:03:15;;;;;;;15.10;6.30;;;17.50;1.00;;;;;;6281727;28;20312;-54
2022/08/28 05:06:20;;;;;;;11.50;6.03;;;17.50;1.00;;;;;;6282670;28;20817;-56
2022/08/28 05:09:23;;;;;;;12.67;6.27;;;17.50;1.00;;;;;;6280578;28;20243;-55
2022/08/28 05:12:26;;;;;;;15.63;6.40;;;17.50;1.00;;;;;;6278168;28;20237;-55
2022/08/28 05:15:30;;;;;;;8.60;5.40;;;17.50;1.00;;;;;;6282579;28;20320;-55
2022/08/28 05:18:34;;;;;;;12.97;5.87;;;17.50;1.00;;;;;;6275056;28;20295;-55
2022/08/28 05:21:37;;;;;;;10.40;5.53;;;17.40;1.00;;;;;;6280501;28;20245;-56
2022/08/28 05:24:40;;;;;;;17.10;6.23;;;17.40;1.00;;;;;;6281761;28;20237;-54
2022/08/28 05:27:43;;;;;;;8.40;5.63;;;17.40;1.00;;;;;;6276399;28;20264;-54
2022/08/28 05:30:49;;;;;;;13.33;6.10;;;17.40;1.00;;;;;;6281044;28;20446;-56
2022/08/28 05:33:52;;;;;;;13.60;5.83;;;17.40;1.00;;;;;;6281802;28;20722;-55
2022/08/28 05:36:55;;;;;;;11.73;5.70;;;17.40;1.00;;;;;;6279255;28;20377;-56
2022/08/28 05:39:58;;;;;;;9.67;5.60;;;17.30;1.00;;;;;;6278817;28;20298;-55
2022/08/28 05:43:01;;;;;;;10.27;5.30;;;17.30;1.00;;;;;;6282578;28;20236;-56
2022/08/28 05:46:09;;;;;;;10.40;5.83;;;17.40;1.00;;;;;;6279780;28;20240;-56
2022/08/28 05:49:12;;;;;;;8.57;5.23;;;17.40;1.00;;;;;;6281936;28;20258;-55
2022/08/28 05:52:15;;;;;;;12.10;5.10;;;17.30;1.00;;;;;;6284347;28;20252;-60
2022/08/28 05:55:18;;;;;;;12.83;5.70;;;17.40;1.00;;;;;;6280094;28;20229;-53
2022/08/28 05:58:39;;;;;;;12.03;5.40;;;17.30;1.00;;;;;;6282115;28;20264;-57
2022/08/28 06:01:46;;;;;;;15.83;5.80;;;17.20;1.00;;;;;;6277677;28;20399;-56
2022/08/28 06:04:49;;;;;;;14.23;6.13;;;17.20;1.00;;;;;;6280510;28;20225;-56
2022/08/28 06:07:52;;;;;;;10.63;5.47;;;17.20;1.00;;;;;;6282097;28;20245;-57
2022/08/28 06:10:55;;;;;;;9.10;5.80;;;17.10;1.00;;;;;;6278114;28;20715;-57
2022/08/28 06:14:00;;;;;;;9.03;5.70;;;17.10;1.00;;;;;;6270069;28;20260;-56
2022/08/28 06:17:05;;;;;;;11.20;6.23;;;17.10;1.00;;;;;;6281080;28;20253;-55
2022/08/28 06:20:09;;;;;;;14.83;6.30;;;17.10;1.00;;;;;;6276034;28;20748;-56
2022/08/28 06:23:15;;;;;;;15.10;6.27;;;17.10;1.00;;;;;;6279014;28;20467;-56
2022/08/28 06:26:27;;;;;;;17.00;6.50;;;17.20;1.00;;;;;;6281113;28;20237;-56
2022/08/28 06:29:30;;;;;;;10.10;6.37;;;17.20;1.00;;;;;;6275601;28;21838;-56
2022/08/28 06:32:35;;;;;;;12.43;6.80;;;17.30;1.00;;;;;;6272710;28;20776;-57
2022/08/28 06:35:41;;;;;;;16.67;6.60;;;17.40;1.00;;;;;;6270313;28;20654;-56
2022/08/28 06:38:45;;;;;;;9.73;6.47;;;17.40;1.00;;;;;;6272220;28;20237;-55
2022/08/28 06:41:48;;;;;;;13.47;6.50;;;17.40;1.00;;;;;;6277781;28;20706;-56
2022/08/28 06:44:51;;;;;;;10.50;6.43;;;17.40;1.00;;;;;;6249745;28;20513;-56
2022/08/28 06:47:57;;;;;;;13.27;7.30;;;17.50;1.00;;;;;;6281100;28;20252;-56
2022/08/28 06:51:00;;;;;;;14.53;6.63;;;17.50;1.00;;;;;;6278975;28;20241;-56
2022/08/28 06:54:04;;;;;;;10.63;6.40;;;17.60;1.00;;;;;;6275868;28;20306;-57
2022/08/28 06:57:07;;;;;;;14.87;6.83;;;17.60;1.00;;;;;;6280444;28;20718;-57
2022/08/28 07:00:11;;;;;;;15.73;7.23;;;17.60;1.00;;;;;;6280792;28;20348;-56
2022/08/28 07:03:16;;;;;;;11.87;6.40;;;17.60;1.00;;;;;;6281062;28;20484;-57
2022/08/28 07:06:21;;;;;;;19.13;7.07;;;17.60;1.00;;;;;;6277284;28;20298;-56
2022/08/28 07:09:24;;;;;;;14.77;7.10;;;17.70;1.00;;;;;;6278967;28;20375;-57
2022/08/28 07:12:27;;;;;;;12.10;6.27;;;17.70;1.00;;;;;;6279649;28;20237;-56
2022/08/28 07:15:30;;;;;;;13.93;7.27;;;17.80;1.00;;;;;;6276316;28;20316;-57
2022/08/28 07:18:34;;;;;;;13.70;6.73;;;17.80;1.00;;;;;;6280082;28;20848;-57
2022/08/28 07:21:40;;;;;;;11.93;6.90;;;17.80;1.00;;;;;;6272333;28;20246;-57
2022/08/28 07:24:47;;;;;;;14.40;7.40;;;17.90;1.00;;;;;;6281178;28;20241;-56
2022/08/28 07:27:52;;;;;;;12.60;7.03;;;17.90;1.00;;;;;;6280891;28;20225;-57
2022/08/28 07:31:02;;;;;;;11.60;7.27;;;17.80;1.00;;;;;;6277118;28;20241;-56
2022/08/28 07:34:06;;;;;;;13.00;6.43;;;17.90;1.00;;;;;;6282531;28;20221;-56
2022/08/28 07:37:09;;;;;;;11.97;7.43;;;17.90;1.00;;;;;;6284758;28;20265;-56
2022/08/28 07:40:18;;;;;;;12.73;8.23;;;17.80;1.00;;;;;;6283610;28;20244;-57
2022/08/28 07:46:43;;;;;;;14.37;6.83;;;18.00;1.00;;;;;;6283942;28;20317;-56
2022/08/28 07:49:52;;;;;;;12.07;7.27;;;18.20;1.00;;;;;;6282620;28;20435;-55
2022/08/28 07:52:55;;;;;;;9.60;6.77;;;18.20;1.00;;;;;;6284525;28;20290;-55
2022/08/28 07:55:58;;;;;;;10.43;6.70;;;18.30;1.00;;;;;;6283500;28;20817;-56
2022/08/28 07:59:02;;;;;;;12.33;6.53;;;18.40;1.00;;;;;;6284553;28;20450;-57
2022/08/28 08:02:05;;;;;;;10.10;6.67;;;18.50;1.00;;;;;;6281317;28;20761;-56
2022/08/28 08:05:13;;;;;;;13.03;6.43;;;18.40;1.00;;;;;;6285182;28;20233;-56
2022/08/28 08:08:16;;;;;;;7.30;6.43;;;18.40;1.00;;;;;;6283754;28;20236;-56
2022/08/28 08:11:19;;;;;;;8.47;6.10;;;18.40;1.00;;;;;;6282022;28;20399;-57
2022/08/28 08:14:25;;;;;;;9.33;6.20;;;18.60;1.00;;;;;;6281362;28;20244;-57
2022/08/28 08:17:29;;;;;;;9.77;6.83;;;18.70;1.00;;;;;;6271647;28;20235;-57
2022/08/28 08:20:41;;;;;;;8.23;6.33;;;18.80;1.00;;;;;;6281672;28;20241;-57
2022/08/28 08:23:44;;;;;;;12.20;6.57;;;18.80;1.00;;;;;;6278012;28;20720;-56
2022/08/28 08:26:57;;;;;;;9.47;5.57;;;18.90;1.00;;;;;;6272119;28;20290;-56
2022/08/28 08:30:03;;;;;;;8.53;6.07;;;18.90;1.00;;;;;;6282895;28;20382;-56
2022/08/28 08:33:06;;;;;;;12.20;6.87;;;19.00;1.00;;;;;;6280671;28;20245;-56
2022/08/28 08:36:12;;;;;;;7.10;6.40;;;19.00;1.00;;;;;;6281602;28;20229;-56
2022/08/28 08:39:15;;;;;;;10.00;6.43;;;19.10;1.00;;;;;;6283218;28;20233;-56
2022/08/28 08:42:29;;;;;;;13.13;6.87;;;19.10;1.00;;;;;;6284571;28;20336;-56
2022/08/28 08:45:35;;;;;;;9.77;6.13;;;19.00;1.00;;;;;;6274248;28;20668;-56
2022/08/28 08:48:40;;;;;;;9.87;7.07;;;19.00;1.00;;;;;;6283607;28;20367;-56
2022/08/28 08:51:49;;;;;;;9.60;6.90;;;19.00;1.00;;;;;;6284680;28;20233;-57
2022/08/28 08:55:06;;;;;;;13.07;7.23;;;18.90;1.00;;;;;;6281454;28;20386;-55
2022/08/28 08:58:16;;;;;;;10.07;6.80;;;18.80;1.00;;;;;;6281526;28;20316;-57
2022/08/28 09:01:28;;;;;;;9.97;6.73;;;18.90;1.00;;;;;;6274305;28;20245;-57
2022/08/28 09:04:41;;;;;;;10.20;6.53;;;19.00;1.00;;;;;;6283350;28;20372;-56
2022/08/28 09:07:55;;;;;;;12.43;7.23;;;19.10;1.00;;;;;;6283331;28;20241;-56
2022/08/28 09:11:06;;;;;;;9.80;7.13;;;19.00;1.00;;;;;;6283642;28;20233;-57
2022/08/28 09:14:19;;;;;;;11.13;7.60;;;19.00;1.00;;;;;;6283098;28;20534;-55
2022/08/28 09:17:37;;;;;;;12.53;7.03;;;19.00;1.00;;;;;;6271065;28;20240;-56
2022/08/28 09:20:40;;;;;;;10.07;7.40;;;19.00;1.00;;;;;;6276863;28;20387;-55
2022/08/28 09:23:52;;;;;;;14.77;7.90;;;19.00;1.00;;;;;;6283090;28;20324;-56
2022/08/28 09:26:58;;;;;;;14.30;7.27;;;19.00;1.00;;;;;;6280286;28;20225;-57
2022/08/28 09:30:06;;;;;;;12.37;7.83;;;19.00;1.00;;;;;;6281482;28;20253;-56
2022/08/28 09:33:11;;;;;;;10.23;7.07;;;19.10;1.00;;;;;;6276896;28;20234;-55
2022/08/28 09:36:25;;;;;;;12.10;7.17;;;19.30;1.00;;;;;;6280722;28;20624;-56
2022/08/28 09:39:31;;;;;;;10.07;7.30;;;19.20;1.00;;;;;;6278104;28;20324;-57
2022/08/28 09:45:58;;;;;;;12.60;7.70;;;19.10;1.00;;;;;;6274216;28;20459;-57
2022/08/28 09:49:09;;;;;;;9.87;6.83;;;19.20;1.00;;;;;;6269980;28;20554;-57
2022/08/28 09:52:20;;;;;;;13.73;7.17;;;19.20;1.00;;;;;;6267240;28;20324;-60
2022/08/28 09:55:36;;;;;;;7.83;6.83;;;19.20;1.00;;;;;;6272684;28;20703;-58
2022/08/28 09:58:43;;;;;;;12.57;6.90;;;19.30;1.00;;;;;;6275660;28;20251;-55
2022/08/28 10:02:09;;;;;;;15.07;8.10;;;19.40;1.00;;;;;;6280499;28;20344;-56
2022/08/28 10:05:16;;;;;;;10.80;7.57;;;19.30;1.00;;;;;;6276981;28;20718;-57
2022/08/28 10:08:29;;;;;;;14.77;8.30;;;19.30;1.00;;;;;;6281239;28;20737;-57
2022/08/28 10:11:51;;;;;;;14.53;8.13;;;19.40;1.00;;;;;;6281563;28;20719;-57
2022/08/28 10:15:01;;;;;;;13.90;8.73;;;19.20;1.00;;;;;;6280379;28;20236;-59
2022/08/28 10:18:35;;;;;;;9.27;7.77;;;19.10;1.00;;;;;;6282496;28;20876;-58
2022/08/28 10:21:45;;;;;;;10.37;7.27;;;19.10;1.00;;;;;;6279225;28;20380;-56
2022/08/28 10:25:20;;;;;;;10.00;8.07;;;19.20;1.00;;;;;;6280541;28;20763;-56
2022/08/28 10:28:40;;;;;;;9.47;8.30;;;19.10;1.00;;;;;;6280211;28;20233;-57
2022/08/28 10:31:48;;;;;;;11.33;7.63;;;19.10;1.00;;;;;;6280173;28;20246;-56
2022/08/28 10:35:02;;;;;;;12.60;8.80;;;19.10;1.00;;;;;;6276436;28;20261;-58
2022/08/28 10:38:11;;;;;;;8.57;7.77;;;19.10;1.00;;;;;;6278956;28;20301;-56
2022/08/28 10:41:19;;;;;;;10.07;8.43;;;19.10;1.00;;;;;;6281640;28;20329;-56
2022/08/28 10:44:43;;;;;;;16.57;8.57;;;19.10;1.00;;;;;;6281105;28;20751;-55
2022/08/28 10:47:51;;;;;;;9.93;9.03;;;19.00;1.00;;;;;;6274681;28;20623;-55
2022/08/28 10:50:59;;;;;;;9.73;8.77;;;19.00;1.00;;;;;;6280733;28;20682;-56
2022/08/28 10:54:06;;;;;;;15.07;9.13;;;19.00;1.00;;;;;;6274737;28;20312;-57
2022/08/28 10:57:22;;;;;;;10.37;8.80;;;19.00;1.00;;;;;;6280957;28;20706;-57
2022/08/28 11:00:28;;;;;;;11.17;8.97;;;18.80;1.00;;;;;;6279634;28;20407;-55
2022/08/28 11:03:39;;;;;;;11.47;8.93;;;18.80;1.00;;;;;;6276743;28;20384;-57
2022/08/28 11:06:47;;;;;;;12.67;9.20;;;18.80;1.00;;;;;;6279714;28;20316;-57
2022/08/28 11:09:50;;;;;;;11.87;9.07;;;18.80;1.00;;;;;;6285798;28;20233;-57
2022/08/28 11:12:53;;;;;;;10.60;9.07;;;18.80;1.00;;;;;;6284154;28;20231;-57
2022/08/28 11:15:58;;;;;;;11.07;8.90;;;18.80;1.00;;;;;;6285910;28;20271;-55
2022/08/28 11:19:37;;;;;;;11.17;8.27;;;18.80;1.00;;;;;;6284624;28;20235;-53
2022/08/28 11:22:49;;;;;;;10.53;8.50;;;18.90;1.00;;;;;;6273650;28;20312;-56
2022/08/28 11:25:57;;;;;;;8.37;7.57;;;18.90;1.00;;;;;;6286171;28;20240;-55
2022/08/28 11:29:03;;;;;;;10.67;8.63;;;18.90;1.00;;;;;;6282813;28;20237;-60
2022/08/28 11:32:35;;;;;;;9.57;8.00;;;19.00;1.00;;;;;;6286488;28;20803;-57
2022/08/28 11:35:47;;;;;;;10.27;8.27;;;19.20;1.00;;;;;;6278924;28;20253;-56
2022/08/28 11:39:19;;;;;;;12.80;7.73;;;19.20;1.00;;;;;;6284083;28;20294;-56
2022/08/28 11:42:37;;;;;;;10.97;7.90;;;19.20;1.00;;;;;;6283767;28;20294;-57
2022/08/28 11:46:05;;;;;;;12.90;8.67;;;19.20;1.00;;;;;;6278876;28;20814;-55
2022/08/28 11:49:43;;;;;;;9.57;7.80;;;19.10;1.00;;;;;;6280530;28;20229;-57
2022/08/28 11:53:12;;;;;;;8.20;7.50;;;19.20;1.00;;;;;;6279445;28;20618;-56
2022/08/28 11:56:47;;;;;;;10.07;9.07;;;19.20;1.00;;;;;;6285193;28;20345;-56
2022/08/28 12:00:07;;;;;;;9.70;8.70;;;19.30;1.00;;;;;;6282141;28;20379;-60
2022/08/28 12:03:12;;;;;;;9.73;8.40;;;19.00;1.00;;;;;;6284992;28;20346;-56
2022/08/28 12:06:48;;;;;;;11.13;8.93;;;19.00;1.00;;;;;;6279381;28;20275;-55
2022/08/28 12:09:51;;;;;;;11.60;8.83;;;19.00;1.00;;;;;;6285321;28;20460;-56
2022/08/28 12:12:57;;;;;;;10.30;8.80;;;18.90;1.00;;;;;;6284039;28;20229;-56
2022/08/28 12:16:06;;;;;;;8.37;7.57;;;18.90;1.00;;;;;;6282160;28;20376;-57
2022/08/28 12:19:10;;;;;;;9.70;8.47;;;19.00;1.00;;;;;;6282383;28;20233;-56
2022/08/28 12:22:18;;;;;;;10.83;8.77;;;19.10;1.00;;;;;;6279998;28;20293;-57
2022/08/28 12:25:34;;;;;;;9.63;8.57;;;19.00;1.00;;;;;;6280406;28;20313;-56
2022/08/28 12:28:47;;;;;;;9.47;8.57;;;19.10;1.00;;;;;;6282038;28;20495;-57
2022/08/28 12:32:13;;;;;;;9.87;8.83;;;19.10;1.00;;;;;;6277842;28;20241;-57
2022/08/28 12:35:18;;;;;;;10.03;8.33;;;19.10;1.00;;;;;;6280066;28;20476;-56
2022/08/28 12:38:23;;;;;;;10.03;8.07;;;19.10;1.00;;;;;;6281707;28;20534;-55
2022/08/28 12:41:26;;;;;;;10.70;8.10;;;19.10;1.00;;;;;;6280879;28;20241;-57
2022/08/28 12:44:31;;;;;;;12.27;9.37;;;19.20;1.00;;;;;;6284072;28;20233;-57
2022/08/28 12:47:37;;;;;;;10.90;8.97;;;19.10;1.00;;;;;;6281675;28;20279;-55
2022/08/28 12:50:40;;;;;;;11.40;9.13;;;19.30;1.00;;;;;;6283063;28;20362;-56
2022/08/28 12:53:47;;;;;;;12.30;8.23;;;19.30;1.00;;;;;;6281563;28;20328;-56
2022/08/28 12:56:50;;;;;;;12.77;8.63;;;19.40;1.00;;;;;;6280648;28;20307;-56
2022/08/28 12:59:55;;;;;;;13.00;8.70;;;19.40;1.00;;;;;;6283315;28;20245;-55
2022/08/28 13:02:59;;;;;;;9.57;8.73;;;19.30;1.00;;;;;;6283230;28;20233;-56
2022/08/28 13:06:06;;;;;;;9.50;8.50;;;19.20;1.00;;;;;;6277051;28;20491;-56
2022/08/28 13:09:16;;;;;;;13.60;9.07;;;19.20;1.00;;;;;;6280379;28;20271;-55
2022/08/28 13:12:23;;;;;;;9.47;8.27;;;19.20;1.00;;;;;;6282079;28;20328;-57
2022/08/28 13:15:52;;;;;;;12.53;8.80;;;19.20;1.00;;;;;;6277677;28;20244;-55
2022/08/28 13:19:20;;;;;;;11.87;8.50;;;19.00;1.00;;;;;;6279879;28;20229;-56
2022/08/28 13:22:35;;;;;;;8.50;7.73;;;19.10;1.00;;;;;;6281569;28;20299;-56
2022/08/28 13:25:39;;;;;;;10.77;7.97;;;19.10;1.00;;;;;;6274479;28;20312;-55
2022/08/28 13:28:43;;;;;;;10.83;8.07;;;19.20;1.00;;;;;;6279940;28;20225;-56
2022/08/28 13:31:56;;;;;;;7.93;7.13;;;19.20;1.00;;;;;;6275584;28;20447;-56
2022/08/28 13:35:07;;;;;;;9.37;7.40;;;19.60;1.00;;;;;;6277320;28;20698;-56
2022/08/28 13:38:12;;;;;;;9.80;7.17;;;20.00;1.00;;;;;;6282693;28;20233;-57
2022/08/28 13:41:16;;;;;;;8.43;7.70;;;20.40;1.00;;;;;;6279532;28;20288;-54
2022/08/28 13:44:28;;;;;;;8.33;6.80;;;20.30;1.00;;;;;;6269896;28;20379;-56
2022/08/28 13:47:31;;;;;;;8.23;7.60;;;20.40;1.00;;;;;;6280927;28;20689;-56
2022/08/28 13:50:37;;;;;;;7.30;6.60;;;20.40;1.00;;;;;;6281893;28;20336;-56
2022/08/28 13:53:40;;;;;;;9.57;6.57;;;20.50;1.00;;;;;;6277942;28;20320;-56
2022/08/28 13:56:44;;;;;;;7.57;6.90;;;20.70;1.00;;;;;;6281476;28;20252;-57
2022/08/28 13:59:47;;;;;;;9.70;6.67;;;21.00;1.00;;;;;;6275588;28;20415;-56
2022/08/28 14:06:18;;;;;;;6.10;5.53;;;21.30;1.00;;;;;;6281090;28;20717;-55
2022/08/28 14:09:27;;;;;;;7.63;5.80;;;21.20;1.00;;;;;;6282290;28;20242;-56
2022/08/28 14:12:31;;;;;;;7.47;6.43;;;21.30;1.00;;;;;;6269855;28;20244;-57
2022/08/28 14:15:35;;;;;;;7.17;6.63;;;21.10;1.00;;;;;;6279946;28;20229;-55
2022/08/28 14:18:38;;;;;;;7.43;6.60;;;21.10;1.00;;;;;;6280583;28;20234;-55
2022/08/28 14:21:43;;;;;;;6.17;5.57;;;21.20;1.00;;;;;;6277278;28;20436;-56
2022/08/28 14:24:46;;;;;;;7.43;6.43;;;21.20;1.00;;;;;;6281363;28;20267;-56
2022/08/28 14:27:51;;;;;;;10.73;6.13;;;21.40;1.00;;;;;;6281380;28;20386;-57
2022/08/28 14:30:54;;;;;;;6.20;5.60;;;21.50;1.00;;;;;;6278398;28;20379;-56
2022/08/28 14:33:58;;;;;;;6.53;5.83;;;21.70;1.00;;;;;;6281001;28;20490;-56
2022/08/28 14:37:02;;;;;;;6.00;5.50;;;21.80;1.00;;;;;;6280915;28;20479;-56
2022/08/28 14:40:06;;;;;;;5.93;5.33;;;21.90;1.00;;;;;;6266915;28;20244;-56
2022/08/28 14:43:11;;;;;;;5.77;5.13;;;21.80;1.00;;;;;;6270416;28;20316;-56
2022/08/28 14:46:15;;;;;;;6.40;5.80;;;21.90;1.00;;;;;;6274301;28;20240;-56
2022/08/28 14:49:24;;;;;;;9.17;6.10;;;21.90;1.00;;;;;;6271517;28;20233;-58
2022/08/28 14:52:26;;;;;;;5.13;4.70;;;21.90;1.00;;;;;;6287471;28;20245;-56
2022/08/28 14:55:29;;;;;;;9.73;7.33;;;22.00;1.00;;;;;;6277775;28;20229;-56
2022/08/28 14:58:35;;;;;;;10.27;6.10;;;21.90;1.00;;;;;;6276358;28;20709;-56
2022/08/28 15:01:39;;;;;;;9.67;6.07;;;22.10;1.00;;;;;;6279506;28;20246;-57
2022/08/28 15:04:43;;;;;;;7.57;6.70;;;22.10;1.00;;;;;;6275914;28;20233;-58
2022/08/28 15:07:46;;;;;;;8.27;6.83;;;22.20;1.00;;;;;;6279925;28;20610;-57
2022/08/28 15:10:49;;;;;;;5.67;5.27;;;22.20;1.00;;;;;;6276393;28;20358;-57
2022/08/28 15:13:56;;;;;;;6.33;4.77;;;22.40;1.00;;;;;;6278842;28;20244;-57
2022/08/28 15:16:59;;;;;;;7.93;5.70;;;22.50;1.00;;;;;;6277777;28;20712;-57
2022/08/28 15:20:03;;;;;;;6.83;4.90;;;22.50;1.00;;;;;;6279993;28;20263;-55
2022/08/28 15:23:07;;;;;;;6.20;5.10;;;22.50;1.00;;;;;;6280359;28;20309;-57
2022/08/28 15:26:10;;;;;;;6.47;5.77;;;22.50;1.00;;;;;;6280068;28;20717;-56
2022/08/28 15:29:18;;;;;;;8.03;5.70;;;22.50;1.00;;;;;;6279200;28;20309;-56
2022/08/28 15:32:21;;;;;;;6.00;5.47;;;22.50;1.00;;;;;;6277094;28;20463;-57
2022/08/28 15:35:24;;;;;;;6.93;5.33;;;22.50;1.00;;;;;;6279859;28;20240;-57
2022/08/28 15:41:22;;;;;;;8.50;5.57;;;22.50;1.00;;;;;;6281157;28;20284;-57
2022/08/28 15:41:50;;;;;;;7.33;4.97;;;22.40;1.00;;;;;;6276490;28;20284;-56
2022/08/28 15:44:54;;;;;;;7.90;5.20;;;22.30;1.00;;;;;;6280650;28;20286;-57
2022/08/28 15:47:57;;;;;;;7.77;5.67;;;22.20;1.00;;;;;;6282694;28;20584;-57
2022/08/28 15:51:01;;;;;;;7.87;5.40;;;22.30;1.00;;;;;;6279961;28;20334;-56
2022/08/28 15:54:04;;;;;;;8.07;5.27;;;22.30;1.00;;;;;;6282303;28;20256;-55
2022/08/28 15:57:07;;;;;;;6.93;5.13;;;22.30;1.00;;;;;;6284770;28;20324;-56
2022/08/28 16:00:12;;;;;;;6.97;6.33;;;22.20;1.00;;;;;;6285425;28;20356;-55
2022/08/28 16:03:15;;;;;;;8.40;5.63;;;22.10;1.00;;;;;;6282828;28;20362;-55
2022/08/28 16:06:21;;;;;;;7.27;5.20;;;22.00;1.00;;;;;;6253275;28;20237;-53
2022/08/28 16:09:24;;;;;;;10.20;5.53;;;22.00;1.00;;;;;;6283158;28;20237;-56
2022/08/28 16:12:27;;;;;;;6.37;5.13;;;21.90;1.00;;;;;;6285282;28;20360;-56
2022/08/28 16:15:31;;;;;;;8.13;5.67;;;21.80;1.00;;;;;;6283995;28;20736;-56
2022/08/28 16:18:41;;;;;;;11.57;5.87;;;21.80;1.00;;;;;;6280289;28;20913;-57
2022/08/28 16:21:44;;;;;;;5.70;5.20;;;21.70;1.00;;;;;;6285005;28;20622;-56
2022/08/28 16:24:47;;;;;;;8.80;5.43;;;21.60;1.00;;;;;;6280972;28;20726;-56
2022/08/28 16:27:50;;;;;;;7.27;5.57;;;21.60;1.00;;;;;;6284692;28;20324;-57